Time;durP1;ratioP1;P1;durP2;ratioP2;P2;SDS_P1;SDS_P2;PMS_P1;PMS_P2;Temp;Humidity;BMP_temperature;BMP_pressure;BME280_temperature;BME280_humidity;BME280_pressure;Samples;Min_cycle;Max_cycle;Signal;HPM_P1;HPM_P2
2022/08/04 00:01:02;;;;;;;;;;;;;;;26.06;41.14;101271.03;5045509;28;19913;-79
2022/08/04 00:03:31;;;;;;;;;;;;;;;26.03;41.43;101271.38;5041767;28;19920;-79
2022/08/04 00:06:23;;;;;;;;;;;;;;;26.03;41.30;101265.97;5046190;28;19921;-79
2022/08/04 00:08:51;;;;;;;;;;;;;;;26.00;41.53;101266.34;5040747;28;20377;-79
2022/08/04 00:11:21;;;;;;;;;;;;;;;25.98;41.36;101273.75;5049947;28;20003;-79
2022/08/04 00:13:54;;;;;;;;;;;;;;;25.96;41.41;101270.41;5053414;28;19990;-79
2022/08/04 00:16:21;;;;;;;;;;;;;;;25.92;41.49;101275.31;5053116;28;19912;-79
2022/08/04 00:18:50;;;;;;;;;;;;;;;25.87;41.57;101277.69;5053453;28;19917;-79
2022/08/04 00:21:17;;;;;;;;;;;;;;;25.80;41.67;101266.78;5052418;28;19967;-79
2022/08/04 00:23:44;;;;;;;;;;;;;;;25.78;41.66;101274.22;5053168;28;19917;-79
2022/08/04 00:26:09;;;;;;;;;;;;;;;25.77;41.83;101277.94;5052858;28;19913;-79
2022/08/04 00:28:37;;;;;;;;;;;;;;;25.77;41.65;101266.31;5052741;28;19936;-79
2022/08/04 00:31:03;;;;;;;;;;;;;;;25.75;41.87;101262.94;5048825;28;19912;-79
2022/08/04 00:33:28;;;;;;;;;;;;;;;25.71;42.01;101265.16;5044340;28;19917;-79
2022/08/04 00:35:54;;;;;;;;;;;;;;;25.71;42.14;101267.84;5044410;28;19963;-79
2022/08/04 00:38:20;;;;;;;;;;;;;;;25.67;41.95;101264.69;5041581;28;19917;-79
2022/08/04 00:40:45;;;;;;;;;;;;;;;25.65;41.95;101263.16;5049662;28;19923;-79
2022/08/04 00:43:16;;;;;;;;;;;;;;;25.62;41.99;101264.34;5052855;28;19956;-79
2022/08/04 00:45:47;;;;;;;;;;;;;;;25.58;42.24;101260.31;5043214;28;19917;-79
2022/08/04 00:48:24;;;;;;;;;;;;;;;25.54;42.30;101262.53;5052881;28;19913;-79
2022/08/04 00:50:55;;;;;;;;;;;;;;;25.51;42.25;101265.56;5031062;28;20011;-79
2022/08/04 00:53:39;;;;;;;;;;;;;;;25.50;42.44;101254.97;5046733;28;19920;-79
2022/08/04 00:56:13;;;;;;;;;;;;;;;25.50;42.46;101254.97;5052626;28;20358;-79
2022/08/04 00:58:45;;;;;;;;;;;;;;;25.49;42.43;101254.13;5052079;28;19917;-79
2022/08/04 01:01:28;;;;;;;;;;;;;;;25.47;42.67;101264.25;5042293;28;19948;-79
2022/08/04 01:04:09;;;;;;;;;;;;;;;25.45;42.45;101263.59;5032931;28;19917;-77
2022/08/04 01:06:57;;;;;;;;;;;;;;;25.43;42.43;101260.22;5048246;28;19924;-77
2022/08/04 01:09:22;;;;;;;;;;;;;;;25.39;42.59;101269.63;5052450;28;19913;-77
2022/08/04 01:12:06;;;;;;;;;;;;;;;25.37;42.72;101275.22;5047561;28;19965;-77
2022/08/04 01:14:31;;;;;;;;;;;;;;;25.33;42.63;101264.97;5052085;28;19913;-76
2022/08/04 01:17:02;;;;;;;;;;;;;;;25.32;42.90;101264.09;5052106;28;20346;-77
2022/08/04 01:19:36;;;;;;;;;;;;;;;25.31;42.86;101272.38;5052049;28;19913;-77
2022/08/04 01:22:20;;;;;;;;;;;;;;;25.29;42.96;101272.53;5051507;28;20348;-77
2022/08/04 01:24:48;;;;;;;;;;;;;;;25.25;42.91;101269.34;5051759;28;20342;-77
2022/08/04 01:27:23;;;;;;;;;;;;;;;25.22;43.25;101272.38;5051817;28;20377;-77
2022/08/04 01:29:49;;;;;;;;;;;;;;;25.22;43.00;101275.06;5042081;28;20377;-77
2022/08/04 01:32:20;;;;;;;;;;;;;;;25.18;43.27;101271.06;5035663;28;19917;-77
2022/08/04 01:34:50;;;;;;;;;;;;;;;25.14;43.27;101275.09;5046530;28;19917;-77
2022/08/04 01:37:21;;;;;;;;;;;;;;;25.10;43.24;101271.94;5038786;28;19917;-77
2022/08/04 01:39:57;;;;;;;;;;;;;;;25.07;43.37;101271.41;5045468;28;19913;-76
2022/08/04 01:42:25;;;;;;;;;;;;;;;25.03;43.26;101273.59;5050864;28;19920;-76
2022/08/04 01:44:51;;;;;;;;;;;;;;;25.01;43.57;101272.94;5044977;28;19982;-77
2022/08/04 01:47:19;;;;;;;;;;;;;;;24.99;43.43;101264.19;5049366;28;19920;-77
2022/08/04 01:49:47;;;;;;;;;;;;;;;24.98;43.70;101267.88;5051400;28;19917;-77
2022/08/04 01:52:15;;;;;;;;;;;;;;;24.98;43.58;101272.44;5044105;28;20381;-77
2022/08/04 01:54:41;;;;;;;;;;;;;;;24.95;43.46;101268.25;5051560;28;19917;-77
2022/08/04 01:57:08;;;;;;;;;;;;;;;24.93;43.69;101265.72;5051483;28;19921;-77
2022/08/04 01:59:34;;;;;;;;;;;;;;;24.91;43.68;101273.13;5047357;28;19957;-77
2022/08/04 02:02:00;;;;;;;;;;;;;;;24.89;43.88;101268.94;5048496;28;19920;-77
2022/08/04 02:04:25;;;;;;;;;;;;;;;24.87;43.85;101265.56;5044189;28;19917;-77
2022/08/04 02:07:13;;;;;;;;;;;;;;;24.84;43.79;101271.28;5050991;28;19928;-77
2022/08/04 02:09:57;;;;;;;;;;;;;;;24.81;43.71;101262.53;5051036;28;19923;-77
2022/08/04 02:12:38;;;;;;;;;;;;;;;24.77;43.95;101265.72;5047370;28;19912;-77
2022/08/04 02:15:10;;;;;;;;;;;;;;;24.74;43.95;101260.69;5050686;28;19955;-76
2022/08/04 02:17:35;;;;;;;;;;;;;;;24.70;44.19;101265.56;5038770;28;19988;-77
2022/08/04 02:20:10;;;;;;;;;;;;;;;24.68;44.13;101266.72;5036637;28;21638;-76
2022/08/04 02:22:46;;;;;;;;;;;;;;;24.65;44.30;101265.22;5033166;28;19914;-76
2022/08/04 02:25:14;;;;;;;;;;;;;;;24.63;44.19;101265.38;5047964;28;19921;-77
2022/08/04 02:27:50;;;;;;;;;;;;;;;24.62;44.25;101263.69;5048882;28;20281;-77
2022/08/04 02:30:16;;;;;;;;;;;;;;;24.59;44.44;101268.59;5039253;28;19920;-76
2022/08/04 02:32:43;;;;;;;;;;;;;;;24.53;44.49;101259.34;5042379;28;19921;-77
2022/08/04 02:35:13;;;;;;;;;;;;;;;24.52;44.69;101263.03;5050779;28;19917;-77
2022/08/04 02:37:41;;;;;;;;;;;;;;;24.51;44.68;101261.34;5051122;28;20619;-77
2022/08/04 02:40:08;;;;;;;;;;;;;;;24.47;44.52;101255.47;5044943;28;19913;-76
2022/08/04 02:42:33;;;;;;;;;;;;;;;24.45;44.71;101259.31;5049977;28;20286;-77
2022/08/04 02:44:59;;;;;;;;;;;;;;;24.43;44.68;101256.00;5043149;28;19921;-77
2022/08/04 02:47:25;;;;;;;;;;;;;;;24.41;44.79;101247.25;5050049;28;19913;-77
2022/08/04 02:49:51;;;;;;;;;;;;;;;24.42;44.85;101246.25;5038708;28;19917;-77
2022/08/04 02:52:20;;;;;;;;;;;;;;;24.41;44.92;101242.69;5049088;28;19994;-77
2022/08/04 02:54:50;;;;;;;;;;;;;;;24.38;44.83;101248.41;5050395;28;19913;-76
2022/08/04 02:57:17;;;;;;;;;;;;;;;24.34;44.88;101242.53;5050818;28;19913;-76
2022/08/04 03:00:01;;;;;;;;;;;;;;;24.34;44.79;101242.53;5045463;28;19940;-77
2022/08/04 03:02:33;;;;;;;;;;;;;;;24.32;45.08;101244.53;5037899;28;20406;-76
2022/08/04 03:05:15;;;;;;;;;;;;;;;24.30;44.96;101243.84;5047346;28;19921;-77
2022/08/04 03:07:56;;;;;;;;;;;;;;;24.29;45.12;101252.09;5050809;28;20273;-77
2022/08/04 03:10:36;;;;;;;;;;;;;;;24.26;45.16;101247.06;5038094;28;19913;-77
2022/08/04 03:13:08;;;;;;;;;;;;;;;24.22;45.28;101251.06;5048161;28;19917;-77
2022/08/04 03:15:36;;;;;;;;;;;;;;;24.18;45.37;101250.56;5050142;28;19917;-77
2022/08/04 03:18:04;;;;;;;;;;;;;;;24.15;45.19;101251.75;5050804;28;19917;-76
2022/08/04 03:20:32;;;;;;;;;;;;;;;24.15;45.31;101253.59;5049987;28;20373;-76
2022/08/04 03:23:03;;;;;;;;;;;;;;;24.15;45.34;101254.44;5053015;28;19948;-77
2022/08/04 03:25:37;;;;;;;;;;;;;;;24.14;45.37;101249.22;5054278;28;19916;-77
2022/08/04 03:28:34;;;;;;;;;;;;;;;24.12;45.41;101256.63;5041126;28;20442;-77
2022/08/04 03:31:14;;;;;;;;;;;;;;;24.11;45.36;101252.25;5048840;28;19919;-76
2022/08/04 03:33:45;;;;;;;;;;;;;;;24.10;45.49;101247.88;5040940;28;19913;-76
2022/08/04 03:36:23;;;;;;;;;;;;;;;24.09;45.73;101251.59;5041531;28;19912;-77
2022/08/04 03:38:48;;;;;;;;;;;;;;;24.05;45.65;101251.91;5040542;28;19920;-76
2022/08/04 03:41:13;;;;;;;;;;;;;;;24.06;45.83;101252.72;5053215;28;19966;-76
2022/08/04 03:43:54;;;;;;;;;;;;;;;24.07;45.58;101253.59;5053703;28;20066;-77
2022/08/04 03:46:35;;;;;;;;;;;;;;;24.05;45.86;101251.91;5044645;28;19921;-76
2022/08/04 03:49:03;;;;;;;;;;;;;;;24.04;45.86;101265.53;5053333;28;19917;-77
2022/08/04 03:54:31;;;;;;;;;;;;;;;24.00;45.86;101259.63;5041874;28;19923;-77
2022/08/04 03:56:57;;;;;;;;;;;;;;;24.00;46.10;101254.25;5053704;28;19913;-77
2022/08/04 03:59:27;;;;;;;;;;;;;;;24.01;46.06;101253.22;5051060;28;19955;-77
2022/08/04 04:01:52;;;;;;;;;;;;;;;24.02;46.11;101256.78;5041186;28;20293;-77
2022/08/04 04:04:17;;;;;;;;;;;;;;;24.05;46.19;101264.50;5045973;28;19917;-77
2022/08/04 04:06:56;;;;;;;;;;;;;;;24.04;46.12;101255.59;5053012;28;20007;-76
2022/08/04 04:09:24;;;;;;;;;;;;;;;24.03;46.14;101258.47;5053860;28;19956;-77
2022/08/04 04:11:50;;;;;;;;;;;;;;;24.04;46.27;101252.91;5048317;28;19968;-76
2022/08/04 04:14:21;;;;;;;;;;;;;;;24.05;46.13;101259.13;5053527;28;19959;-77
2022/08/04 04:16:52;;;;;;;;;;;;;;;24.08;46.24;101264.16;5053138;28;20431;-77
2022/08/04 04:19:50;;;;;;;;;;;;;;;24.09;46.07;101265.84;5053518;28;20266;-77
2022/08/04 04:22:27;;;;;;;;;;;;;;;24.10;46.13;101264.03;5051808;28;19913;-77
2022/08/04 04:25:11;;;;;;;;;;;;;;;24.10;46.22;101264.03;5053096;28;19916;-77
2022/08/04 04:27:51;;;;;;;;;;;;;;;24.09;46.33;101265.84;5052828;28;19912;-77
2022/08/04 04:30:17;;;;;;;;;;;;;;;24.11;46.19;101263.84;5052158;28;19913;-77
2022/08/04 04:33:01;;;;;;;;;;;;;;;24.10;46.44;101262.16;5043894;28;19970;-77
2022/08/04 04:35:44;;;;;;;;;;;;;;;24.11;46.47;101265.69;5044296;28;20263;-76
2022/08/04 04:38:10;;;;;;;;;;;;;;;24.09;46.44;101263.16;5043570;28;19913;-76
2022/08/04 04:40:47;;;;;;;;;;;;;;;24.11;46.31;101263.00;5047995;28;20292;-76
2022/08/04 04:43:24;;;;;;;;;;;;;;;24.12;46.47;101259.31;5052768;28;19923;-77
2022/08/04 04:45:56;;;;;;;;;;;;;;;24.14;46.34;101262.66;5043708;28;20003;-76
2022/08/04 04:48:39;;;;;;;;;;;;;;;24.18;46.45;101262.19;5052773;28;19920;-77
2022/08/04 04:51:13;;;;;;;;;;;;;;;24.19;46.48;101268.38;5038919;28;19912;-77
2022/08/04 04:53:41;;;;;;;;;;;;;;;24.20;46.45;101262.00;5049169;28;19970;-77
2022/08/04 04:56:21;;;;;;;;;;;;;;;24.23;46.45;101264.38;5052377;28;19913;-77
2022/08/04 04:58:48;;;;;;;;;;;;;;;24.26;46.67;101264.03;5052487;28;19913;-76
2022/08/04 05:01:14;;;;;;;;;;;;;;;24.31;46.44;101260.84;5037197;28;19917;-76
2022/08/04 05:04:09;;;;;;;;;;;;;;;24.32;46.63;101260.66;5044619;28;20293;-77
2022/08/04 05:06:53;;;;;;;;;;;;;;;24.34;46.50;101274.78;5029786;28;20294;-77
2022/08/04 05:09:27;;;;;;;;;;;;;;;24.37;46.58;101264.72;5045262;28;19940;-76
2022/08/04 05:12:02;;;;;;;;;;;;;;;24.39;46.50;101262.69;5049242;28;19928;-77
2022/08/04 05:14:48;;;;;;;;;;;;;;;24.41;46.73;101260.69;5051810;28;20300;-77
2022/08/04 05:17:25;;;;;;;;;;;;;;;24.45;46.60;101262.88;5052358;28;20614;-77
2022/08/04 05:20:00;;;;;;;;;;;;;;;24.49;46.39;101266.91;5052296;28;20365;-76
2022/08/04 05:22:28;;;;;;;;;;;;;;;24.53;46.43;101270.09;5050873;28;20060;-77
2022/08/04 05:25:01;;;;;;;;;;;;;;;24.58;46.31;101267.72;5051681;28;19920;-76
2022/08/04 05:27:40;;;;;;;;;;;;;;;24.63;46.19;101267.25;5051820;28;19913;-76
2022/08/04 05:30:06;;;;;;;;;;;;;;;24.68;45.94;101269.44;5051913;28;20317;-76
2022/08/04 05:32:39;;;;;;;;;;;;;;;24.71;46.12;101272.63;5049651;28;19917;-77
2022/08/04 05:35:25;;;;;;;;;;;;;;;24.75;45.92;101270.44;5038128;28;19914;-77
2022/08/04 05:37:52;;;;;;;;;;;;;;;24.79;45.89;101266.41;5038440;28;19956;-77
2022/08/04 05:40:18;;;;;;;;;;;;;;;24.85;45.86;101271.13;5045296;28;19958;-77
2022/08/04 05:42:43;;;;;;;;;;;;;;;24.89;45.68;101267.06;5043529;28;20301;-76
2022/08/04 05:45:09;;;;;;;;;;;;;;;24.93;45.59;101260.34;5044286;28;19917;-77
2022/08/04 05:47:35;;;;;;;;;;;;;;;24.96;45.62;101260.00;5051281;28;19920;-77
2022/08/04 05:50:01;;;;;;;;;;;;;;;24.99;45.70;101269.56;5051472;28;19924;-77
2022/08/04 05:52:27;;;;;;;;;;;;;;;25.03;45.60;101264.72;5043956;28;19913;-78
2022/08/04 05:54:52;;;;;;;;;;;;;;;25.06;45.67;101267.88;5052103;28;20007;-77
2022/08/04 05:57:19;;;;;;;;;;;;;;;25.09;45.60;101264.00;5051805;28;19913;-77
2022/08/04 05:59:48;;;;;;;;;;;;;;;25.12;45.53;101269.06;5046340;28;19913;-77
2022/08/04 06:02:16;;;;;;;;;;;;;;;25.17;45.24;101263.16;5039144;28;19916;-77
2022/08/04 06:04:44;;;;;;;;;;;;;;;25.20;45.30;101269.00;5045635;28;20022;-77
2022/08/04 06:07:10;;;;;;;;;;;;;;;25.24;45.33;101274.91;5051484;28;19913;-77
2022/08/04 06:09:35;;;;;;;;;;;;;;;25.26;45.21;101268.34;5051387;28;20296;-77
2022/08/04 06:12:03;;;;;;;;;;;;;;;25.30;45.39;101270.69;5038750;28;19927;-77
2022/08/04 06:14:31;;;;;;;;;;;;;;;25.32;45.12;101274.88;5046003;28;20007;-77
2022/08/04 06:16:58;;;;;;;;;;;;;;;25.36;45.18;101276.22;5051055;28;19917;-77
2022/08/04 06:19:25;;;;;;;;;;;;;;;25.40;45.13;101271.31;5051273;28;20377;-77
2022/08/04 06:21:52;;;;;;;;;;;;;;;25.41;45.22;101271.16;5050025;28;19919;-77
2022/08/04 06:24:19;;;;;;;;;;;;;;;25.44;45.40;101272.69;5051062;28;19917;-77
2022/08/04 06:26:46;;;;;;;;;;;;;;;25.47;45.12;101277.72;5051235;28;19913;-77
2022/08/04 06:29:19;;;;;;;;;;;;;;;25.50;45.36;101274.66;5050867;28;20380;-77
2022/08/04 06:31:56;;;;;;;;;;;;;;;25.54;45.16;101283.25;5041568;28;19917;-77
2022/08/04 06:34:22;;;;;;;;;;;;;;;25.56;45.22;101276.66;5046828;28;19984;-77
2022/08/04 06:36:48;;;;;;;;;;;;;;;25.61;45.22;101278.00;5039199;28;20016;-77
2022/08/04 06:39:14;;;;;;;;;;;;;;;25.64;45.00;101283.06;5047066;28;19913;-77
2022/08/04 06:41:40;;;;;;;;;;;;;;;25.68;45.11;101274.44;5055654;28;20016;-77
2022/08/04 06:44:08;;;;;;;;;;;;;;;25.69;45.02;101276.13;5049993;28;19923;-77
2022/08/04 06:46:34;;;;;;;;;;;;;;;25.74;45.26;101272.03;5043010;28;19928;-77
2022/08/04 06:48:59;;;;;;;;;;;;;;;25.77;44.94;101267.16;5045500;28;19990;-77
2022/08/04 06:51:27;;;;;;;;;;;;;;;25.82;45.12;101266.63;5041987;28;20337;-78
2022/08/04 06:53:52;;;;;;;;;;;;;;;25.85;45.01;101263.56;5050804;28;19917;-77
2022/08/04 06:56:18;;;;;;;;;;;;;;;25.89;44.92;101267.56;5050654;28;19917;-77
2022/08/04 06:58:44;;;;;;;;;;;;;;;25.91;44.84;101268.25;5054670;28;19923;-77
2022/08/04 07:01:11;;;;;;;;;;;;;;;25.95;44.75;101269.56;5047602;28;19920;-78
2022/08/04 07:03:36;;;;;;;;;;;;;;;25.99;44.63;101265.50;5092744;22;20375;-61
2022/08/04 07:06:02;;;;;;;;;;;;;;;26.03;44.46;101265.97;5093887;28;19974;-64
2022/08/04 07:08:27;;;;;;;;;;;;;;;26.07;44.49;101266.47;5094980;28;19916;-64
2022/08/04 07:10:53;;;;;;;;;;;;;;;26.10;44.49;101266.09;5093592;28;19963;-60
2022/08/04 07:13:19;;;;;;;;;;;;;;;26.13;44.54;101263.09;5077066;28;20026;-61
2022/08/04 07:15:46;;;;;;;;;;;;;;;26.16;44.46;101266.25;5073453;28;19920;-62
2022/08/04 07:18:11;;;;;;;;;;;;;;;26.21;44.43;101268.41;5074493;28;20003;-61
2022/08/04 07:20:40;;;;;;;;;;;;;;;26.25;44.18;101263.50;5074412;28;20007;-64
2022/08/04 07:23:06;;;;;;;;;;;;;;;26.28;44.25;101261.28;5074410;28;19912;-63
2022/08/04 07:25:35;;;;;;;;;;;;;;;26.33;44.21;101260.75;5073093;28;20008;-61
2022/08/04 07:28:00;;;;;;;;;;;;;;;26.36;44.15;101259.53;5074543;28;19912;-63
2022/08/04 07:30:27;;;;;;;;;;;;;;;26.40;44.06;101252.78;5072760;28;20278;-62
2022/08/04 07:32:53;;;;;;;;;;;;;;;26.45;43.90;101258.47;5065844;28;19913;-59
2022/08/04 07:35:20;;;;;;;;;;;;;;;26.47;43.88;101249.16;5062034;28;19920;-60
2022/08/04 07:37:46;;;;;;;;;;;;;;;26.51;44.00;101255.03;5065820;28;19917;-63
2022/08/04 07:40:11;;;;;;;;;;;;;;;26.54;43.87;101251.16;5074638;28;20421;-62
2022/08/04 07:42:36;;;;;;;;;;;;;;;26.57;44.04;101251.63;5074564;28;20054;-59
2022/08/04 07:45:02;;;;;;;;;;;;;;;26.63;43.87;101255.44;5074508;28;20479;-60
2022/08/04 07:47:27;;;;;;;;;;;;;;;26.66;44.12;101254.22;5074464;28;19917;-62
2022/08/04 07:49:54;;;;;;;;;;;;;;;26.71;43.90;101251.81;5074214;28;19917;-62
2022/08/04 07:52:20;;;;;;;;;;;;;;;26.74;43.79;101252.28;5073848;28;19912;-62
2022/08/04 07:54:46;;;;;;;;;;;;;;;26.78;43.77;101250.91;5074294;28;20398;-61
2022/08/04 07:57:11;;;;;;;;;;;;;;;26.84;43.89;101264.72;5074291;28;19916;-64
2022/08/04 07:59:36;;;;;;;;;;;;;;;26.85;43.93;101261.00;5074320;28;20372;-64
2022/08/04 08:02:02;;;;;;;;;;;;;;;26.91;43.91;101260.25;5065060;28;20401;-63
2022/08/04 08:04:27;;;;;;;;;;;;;;;26.93;43.69;101250.13;5065253;28;19927;-60
2022/08/04 08:06:53;;;;;;;;;;;;;;;26.99;43.66;101257.50;5074250;28;20367;-59
2022/08/04 08:09:22;;;;;;;;;;;;;;;27.03;43.67;101253.38;5072831;28;19916;-60
2022/08/04 08:11:49;;;;;;;;;;;;;;;27.06;43.79;101241.38;5073783;28;19923;-62
2022/08/04 08:14:15;;;;;;;;;;;;;;;27.11;43.44;101246.22;5074085;28;19916;-63
2022/08/04 08:16:40;;;;;;;;;;;;;;;27.16;43.63;101246.47;5073808;28;19916;-59
2022/08/04 08:19:06;;;;;;;;;;;;;;;27.21;43.56;101246.75;5074281;28;20325;-61
2022/08/04 08:21:32;;;;;;;;;;;;;;;27.24;43.45;101236.41;5073233;28;20326;-60
2022/08/04 08:23:57;;;;;;;;;;;;;;;27.29;43.20;101241.28;5073570;28;19923;-62
2022/08/04 08:26:23;;;;;;;;;;;;;;;27.34;43.38;101236.13;5073701;28;19924;-64
2022/08/04 08:28:48;;;;;;;;;;;;;;;27.41;43.18;101238.09;5073611;28;20379;-64
2022/08/04 08:31:13;;;;;;;;;;;;;;;27.46;42.80;101235.69;5073336;28;19920;-63
2022/08/04 08:33:39;;;;;;;;;;;;;;;27.54;42.51;101236.41;5072409;28;20394;-64
2022/08/04 08:36:19;;;;;;;;;;;;;;;27.61;42.57;101235.66;5059819;28;19923;-61
2022/08/04 08:38:45;;;;;;;;;;;;;;;27.68;42.46;101232.00;5073275;28;19912;-63
2022/08/04 08:41:29;;;;;;;;;;;;;;;27.74;42.50;101232.28;5072181;28;19912;-63
2022/08/04 08:43:54;;;;;;;;;;;;;;;27.79;42.48;101237.94;5073328;28;19943;-61
2022/08/04 08:46:32;;;;;;;;;;;;;;;27.84;42.00;101230.94;5073280;28;20303;-60
2022/08/04 08:49:06;;;;;;;;;;;;;;;27.90;42.23;101234.75;5072193;28;19912;-64
2022/08/04 08:51:50;;;;;;;;;;;;;;;27.93;41.72;101238.94;5072763;28;20002;-62
2022/08/04 08:54:26;;;;;;;;;;;;;;;27.96;41.96;101233.16;5061239;28;19912;-60
2022/08/04 08:56:57;;;;;;;;;;;;;;;28.01;41.87;101229.84;5073226;28;19951;-63
2022/08/04 08:59:31;;;;;;;;;;;;;;;28.07;41.56;101234.47;5070143;28;19973;-61
2022/08/04 09:02:04;;;;;;;;;;;;;;;28.12;41.48;101226.66;5068025;28;19935;-63
2022/08/04 09:04:32;;;;;;;;;;;;;;;28.16;41.42;101236.06;5072964;28;19920;-63
2022/08/04 09:06:58;;;;;;;;;;;;;;;28.21;41.32;101228.19;5072978;28;19913;-61
2022/08/04 09:09:32;;;;;;;;;;;;;;;28.27;41.08;101227.44;5073048;28;19924;-63
2022/08/04 09:12:06;;;;;;;;;;;;;;;28.36;40.88;101224.59;5061365;28;19952;-62
2022/08/04 09:14:38;;;;;;;;;;;;;;;28.42;40.39;101215.69;5067255;28;19977;-63
2022/08/04 09:17:12;;;;;;;;;;;;;;;28.47;40.59;101215.09;5072837;28;19917;-60
2022/08/04 09:19:48;;;;;;;;;;;;;;;28.53;40.10;101215.13;5072413;28;20287;-62
2022/08/04 09:22:14;;;;;;;;;;;;;;;28.60;40.33;101223.31;5072050;28;19927;-63
2022/08/04 09:24:57;;;;;;;;;;;;;;;28.70;40.07;101222.97;5072357;28;19917;-64
2022/08/04 09:27:34;;;;;;;;;;;;;;;28.78;39.92;101220.16;5072639;28;19913;-63
2022/08/04 09:30:07;;;;;;;;;;;;;;;28.87;39.58;101216.25;5064653;28;19959;-64
2022/08/04 09:32:40;;;;;;;;;;;;;;;28.95;39.38;101212.53;5064260;28;19921;-64
2022/08/04 09:35:11;;;;;;;;;;;;;;;29.03;38.97;101211.53;5072190;28;20295;-64
2022/08/04 09:37:43;;;;;;;;;;;;;;;29.11;39.12;101208.69;5070596;28;19912;-64
2022/08/04 09:40:20;;;;;;;;;;;;;;;29.20;38.88;101218.31;5072009;28;20012;-64
2022/08/04 09:42:50;;;;;;;;;;;;;;;29.25;38.45;101208.75;5062819;28;19921;-64
2022/08/04 09:45:39;;;;;;;;;;;;;;;29.31;38.69;101213.34;5071668;28;19999;-64
2022/08/04 09:48:06;;;;;;;;;;;;;;;29.38;38.43;101203.41;5069106;28;20330;-63
2022/08/04 09:50:39;;;;;;;;;;;;;;;29.47;38.15;101201.34;5069630;28;19964;-60
2022/08/04 09:53:43;;;;;;;;;;;;;;;29.55;38.32;101203.88;5072202;28;19956;-64
2022/08/04 09:56:31;;;;;;;;;;;;;;;29.65;37.77;101203.47;5030146;28;19913;-60
2022/08/04 09:59:14;;;;;;;;;;;;;;;29.73;37.60;101206.00;5045288;28;20322;-60
2022/08/04 10:01:40;;;;;;;;;;;;;;;29.84;37.41;101201.84;5059484;28;19935;-59
2022/08/04 10:04:11;;;;;;;;;;;;;;;29.95;37.04;101203.97;5071646;28;19924;-59
2022/08/04 10:06:54;;;;;;;;;;;;;;;30.03;37.15;101193.97;5071788;28;20003;-60
2022/08/04 10:09:29;;;;;;;;;;;;;;;30.11;36.96;101191.03;5072074;28;20399;-59
2022/08/04 10:11:54;;;;;;;;;;;;;;;30.23;36.33;101196.69;5071522;28;19922;-60
2022/08/04 10:14:29;;;;;;;;;;;;;;;30.30;36.13;101192.13;5071619;28;19912;-62
2022/08/04 10:16:57;;;;;;;;;;;;;;;30.38;36.33;101186.47;5072097;28;20010;-58
2022/08/04 10:19:33;;;;;;;;;;;;;;;30.49;36.00;101192.28;5071940;28;20009;-63
2022/08/04 10:22:01;;;;;;;;;;;;;;;30.56;35.64;101182.28;5071402;28;20003;-62
2022/08/04 10:24:28;;;;;;;;;;;;;;;30.64;35.50;101187.50;5070229;28;19931;-63
2022/08/04 10:27:17;;;;;;;;;;;;;;;30.71;35.70;101190.19;5069286;28;20508;-65
2022/08/04 10:29:44;;;;;;;;;;;;;;;30.77;35.47;101172.25;5060543;28;20009;-63
2022/08/04 10:32:32;;;;;;;;;;;;;;;30.83;35.13;101174.09;5061738;28;20022;-60
2022/08/04 10:34:58;;;;;;;;;;;;;;;30.91;34.78;101173.88;5075265;28;19912;-60
2022/08/04 10:37:25;;;;;;;;;;;;;;;30.95;34.95;101172.38;5078152;28;19920;-62
2022/08/04 10:43:01;;;;;;;;;;;;;;;31.08;34.93;101173.38;5078184;28;20295;-64
2022/08/04 10:45:37;;;;;;;;;;;;;;;31.15;34.43;101164.19;5077985;28;20007;-64
2022/08/04 10:48:10;;;;;;;;;;;;;;;31.23;34.58;101170.41;5078466;28;19999;-65
2022/08/04 10:50:37;;;;;;;;;;;;;;;31.26;34.04;101168.09;5077677;28;20303;-65
2022/08/04 10:53:06;;;;;;;;;;;;;;;31.32;34.04;101172.66;5077923;28;19924;-64
2022/08/04 10:56:04;;;;;;;;;;;;;;;31.37;34.00;101160.31;5077994;28;20312;-63
2022/08/04 10:58:34;;;;;;;;;;;;;;;31.43;33.87;101164.88;5052917;28;20375;-64
2022/08/04 11:01:01;;;;;;;;;;;;;;;31.46;33.57;101164.44;5077741;28;19920;-65
2022/08/04 11:03:37;;;;;;;;;;;;;;;31.52;33.52;101157.28;5077910;28;19974;-64
2022/08/04 11:06:03;;;;;;;;;;;;;;;31.56;33.49;101156.63;5078171;28;19916;-64
2022/08/04 11:08:43;;;;;;;;;;;;;;;31.61;33.38;101158.72;5077955;28;19920;-63
2022/08/04 11:11:11;;;;;;;;;;;;;;;31.66;33.18;101141.72;5077428;28;19912;-60
2022/08/04 11:13:48;;;;;;;;;;;;;;;31.68;33.08;101147.78;5077848;28;20418;-63
2022/08/04 11:16:19;;;;;;;;;;;;;;;31.75;33.14;101149.44;5077847;28;20012;-63
2022/08/04 11:18:48;;;;;;;;;;;;;;;31.85;32.98;101146.22;5077836;28;19928;-60
2022/08/04 11:21:20;;;;;;;;;;;;;;;31.92;32.65;101141.56;5077873;28;19935;-64
2022/08/04 11:24:11;;;;;;;;;;;;;;;31.98;32.53;101148.00;5077787;28;19923;-63
2022/08/04 11:26:55;;;;;;;;;;;;;;;32.04;32.19;101135.38;5047959;28;19916;-64
2022/08/04 11:29:27;;;;;;;;;;;;;;;32.07;32.14;101140.38;5077569;28;20295;-64
2022/08/04 11:31:54;;;;;;;;;;;;;;;32.13;32.22;101138.66;5071549;28;19963;-64
2022/08/04 11:34:23;;;;;;;;;;;;;;;32.18;31.65;101131.47;5071497;28;20299;-63
2022/08/04 11:37:01;;;;;;;;;;;;;;;32.22;31.57;101142.75;5078030;28;19917;-63
2022/08/04 11:39:29;;;;;;;;;;;;;;;32.24;31.48;101137.91;5077812;28;19919;-63
2022/08/04 11:42:05;;;;;;;;;;;;;;;32.27;31.73;101134.78;5077019;28;19927;-63
2022/08/04 11:44:34;;;;;;;;;;;;;;;32.33;31.53;101127.59;5074517;28;20394;-64
2022/08/04 11:47:17;;;;;;;;;;;;;;;32.37;31.38;101132.38;5074575;28;19919;-64
2022/08/04 11:49:44;;;;;;;;;;;;;;;32.40;31.27;101136.56;5074448;28;20387;-64
2022/08/04 11:52:12;;;;;;;;;;;;;;;32.45;31.22;101127.69;5073717;28;20302;-62
2022/08/04 11:54:39;;;;;;;;;;;;;;;32.52;31.29;101123.03;5074761;28;19912;-62
2022/08/04 11:57:04;;;;;;;;;;;;;;;32.60;31.20;101135.50;5074379;28;19916;-62
2022/08/04 11:59:32;;;;;;;;;;;;;;;32.67;30.97;101122.63;5068244;28;19916;-63
2022/08/04 12:02:09;;;;;;;;;;;;;;;32.72;30.99;101125.53;5070932;28;20038;-64
2022/08/04 12:04:50;;;;;;;;;;;;;;;32.76;30.59;101123.16;5061646;28;20390;-64
2022/08/04 12:07:33;;;;;;;;;;;;;;;32.82;30.65;101125.84;5074148;28;20305;-61
2022/08/04 12:10:14;;;;;;;;;;;;;;;32.86;30.50;101114.50;5074436;28;19940;-64
2022/08/04 12:12:46;;;;;;;;;;;;;;;32.89;30.42;101114.03;5069853;28;19961;-64
2022/08/04 12:15:31;;;;;;;;;;;;;;;32.88;30.43;101113.19;5073710;28;19959;-63
2022/08/04 12:18:03;;;;;;;;;;;;;;;32.92;30.46;101111.69;5072264;28;19917;-64
2022/08/04 12:20:30;;;;;;;;;;;;;;;33.00;30.43;101113.25;5073368;28;20299;-64
2022/08/04 12:22:56;;;;;;;;;;;;;;;33.05;30.35;101110.66;5073738;28;19913;-65
2022/08/04 12:25:33;;;;;;;;;;;;;;;33.12;30.10;101105.97;5073820;28;20414;-64
2022/08/04 12:28:01;;;;;;;;;;;;;;;33.23;29.99;101107.06;5074154;28;19923;-64
2022/08/04 12:30:29;;;;;;;;;;;;;;;33.34;30.00;101119.09;5061142;28;19924;-65
2022/08/04 12:33:02;;;;;;;;;;;;;;;33.40;29.82;101112.72;5067224;28;19987;-63
2022/08/04 12:35:48;;;;;;;;;;;;;;;33.43;29.64;101104.06;5073928;28;20465;-64
2022/08/04 12:38:14;;;;;;;;;;;;;;;33.48;29.49;101102.56;5073852;28;20470;-65
2022/08/04 12:40:47;;;;;;;;;;;;;;;33.52;29.56;101098.28;5073238;28;19912;-65
2022/08/04 12:43:22;;;;;;;;;;;;;;;33.53;29.45;101100.78;5071863;28;19916;-61
2022/08/04 12:45:48;;;;;;;;;;;;;;;33.56;29.44;101099.47;5073515;28;20367;-63
2022/08/04 12:48:15;;;;;;;;;;;;;;;33.59;29.18;101094.38;5073361;28;20441;-63
2022/08/04 12:50:41;;;;;;;;;;;;;;;33.64;29.19;101090.97;5067051;28;19917;-62
2022/08/04 12:53:10;;;;;;;;;;;;;;;33.70;29.34;101090.00;5072953;28;19919;-64
2022/08/04 12:55:43;;;;;;;;;;;;;;;33.78;29.02;101086.09;5072783;28;20011;-63
2022/08/04 12:58:22;;;;;;;;;;;;;;;33.85;28.88;101083.25;5060587;28;19965;-63
2022/08/04 13:00:52;;;;;;;;;;;;;;;33.92;29.04;101073.09;5072975;28;19920;-61
2022/08/04 13:05:47;;;;;;;;;;;;;;;34.07;28.79;101075.34;5073708;28;19924;-56